Time;durP1;ratioP1;P1;durP2;ratioP2;P2;SDS_P1;SDS_P2;PMS_P1;PMS_P2;Temp;Humidity;BMP_temperature;BMP_pressure;BME280_temperature;BME280_humidity;BME280_pressure;Samples;Min_cycle;Max_cycle;Signal;HPM_P1;HPM_P2
2024/04/19 00:00:09;;;;;;;20.70;5.10;;;;;;;19.16;100.00;100807.66;11306610;26;20950;-78
2024/04/19 00:05:36;;;;;;;23.52;5.38;;;;;;;19.02;100.00;100802.56;11323325;26;20002;-78
2024/04/19 00:11:00;;;;;;;20.73;5.32;;;;;;;18.85;100.00;100800.16;11312223;26;20002;-78
2024/04/19 00:16:27;;;;;;;26.25;6.25;;;;;;;18.77;100.00;100783.38;11294082;26;19998;-78
2024/04/19 00:21:51;;;;;;;30.10;6.35;;;;;;;18.57;100.00;100773.03;11324230;26;20442;-79
2024/04/19 00:27:14;;;;;;;24.67;6.00;;;;;;;18.23;100.00;100774.44;11265793;26;19998;-80
2024/04/19 00:32:44;;;;;;;26.50;5.93;;;;;;;18.22;100.00;100767.34;11324026;26;20008;-79
2024/04/19 00:38:08;;;;;;;30.17;6.85;;;;;;;18.26;100.00;100777.06;11348708;26;20013;-79
2024/04/19 00:43:32;;;;;;;22.33;6.25;;;;;;;18.23;100.00;100772.66;11323888;26;19998;-79
2024/04/19 00:48:59;;;;;;;18.73;6.03;;;;;;;18.26;100.00;100772.59;11290804;26;20326;-79
2024/04/19 00:54:23;;;;;;;24.92;5.97;;;;;;;18.34;100.00;100783.16;11323642;26;20013;-80
2024/04/19 00:59:49;;;;;;;28.52;6.18;;;;;;;18.30;100.00;100801.06;11271906;26;20430;-79
2024/04/19 01:05:16;;;;;;;23.13;6.40;;;;;;;18.10;100.00;100803.16;11318754;26;20006;-79
2024/04/19 01:10:41;;;;;;;22.85;6.18;;;;;;;18.01;100.00;100810.41;11304374;26;20013;-79
2024/04/19 01:16:05;;;;;;;21.02;5.78;;;;;;;17.90;100.00;100810.56;11298140;26;20002;-78
2024/04/19 01:21:51;;;;;;;22.55;6.05;;;;;;;17.96;100.00;100802.47;11313439;26;20006;-80
2024/04/19 01:27:19;;;;;;;30.00;6.82;;;;;;;17.99;100.00;100805.06;11322920;26;20698;-80
2024/04/19 01:32:43;;;;;;;29.17;6.72;;;;;;;17.89;100.00;100799.00;11322486;26;20017;-81
2024/04/19 01:38:07;;;;;;;24.23;5.88;;;;;;;17.83;100.00;100793.72;11322348;26;20316;-81
2024/04/19 01:43:34;;;;;;;22.20;5.50;;;;;;;17.49;100.00;100789.69;11372880;26;19998;-80
2024/04/19 01:48:58;;;;;;;28.65;6.00;;;;;;;17.51;100.00;100785.22;11315998;26;20042;-80
2024/04/19 01:54:22;;;;;;;19.63;5.32;;;;;;;17.58;100.00;100783.38;11291902;26;20342;-79
2024/04/19 01:59:49;;;;;;;25.42;6.03;;;;;;;17.67;100.00;100785.94;11345678;26;20002;-79
2024/04/19 02:05:13;;;;;;;21.88;5.90;;;;;;;17.64;100.00;100777.97;11320817;26;20461;-79
2024/04/19 02:10:38;;;;;;;26.52;6.00;;;;;;;17.61;100.00;100767.31;11321414;26;20002;-81
2024/04/19 02:16:06;;;;;;;29.90;6.35;;;;;;;17.54;100.00;100779.84;11290410;26;20604;-81
2024/04/19 02:21:30;;;;;;;33.93;6.90;;;;;;;17.46;100.00;100779.03;11322818;26;19998;-80
2024/04/19 02:26:54;;;;;;;31.25;6.70;;;;;;;17.34;100.00;100777.41;11328641;26;20450;-81
2024/04/19 02:32:20;;;;;;;27.98;5.75;;;;;;;17.35;100.00;100784.50;11326321;26;20012;-81
2024/04/19 02:37:44;;;;;;;26.52;6.82;;;;;;;17.30;100.00;100777.47;11328541;26;20002;-80
2024/04/19 02:43:09;;;;;;;27.60;6.80;;;;;;;17.25;100.00;100788.19;11326936;26;20450;-80
2024/04/19 02:48:35;;;;;;;26.42;6.38;;;;;;;17.17;100.00;100787.41;11325572;26;19998;-80
2024/04/19 02:54:00;;;;;;;22.42;6.43;;;;;;;17.12;100.00;100799.91;11303376;26;20707;-82
2024/04/19 02:59:24;;;;;;;23.58;6.80;;;;;;;17.08;100.00;100811.50;11319373;26;20012;-80
2024/04/19 03:04:51;;;;;;;22.83;6.35;;;;;;;16.84;100.00;100825.06;11329511;26;20010;-82
2024/04/19 03:10:15;;;;;;;26.48;7.20;;;;;;;16.62;100.00;100825.25;11376666;26;20075;-83
2024/04/19 03:15:39;;;;;;;22.05;6.18;;;;;;;16.67;100.00;100834.09;11322375;26;20012;-82
2024/04/19 03:21:06;;;;;;;26.65;6.85;;;;;;;16.76;100.00;100822.47;11320806;26;20026;-82
2024/04/19 03:26:30;;;;;;;19.00;6.53;;;;;;;16.80;100.00;100839.34;11325822;26;19998;-82
2024/04/19 03:31:56;;;;;;;21.27;7.03;;;;;;;16.77;100.00;100848.22;11323599;26;20006;-81
2024/04/19 03:37:23;;;;;;;22.63;6.63;;;;;;;16.92;100.00;100847.22;11326116;26;20012;-79
2024/04/19 03:42:48;;;;;;;19.98;6.10;;;;;;;16.98;100.00;100852.50;11376242;26;20002;-80
2024/04/19 03:48:12;;;;;;;28.45;6.57;;;;;;;16.97;100.00;100864.06;11285978;26;20042;-80
2024/04/19 03:53:39;;;;;;;25.23;6.63;;;;;;;17.05;100.00;100873.78;11319464;26;19995;-80
2024/04/19 03:59:03;;;;;;;24.27;6.70;;;;;;;17.18;100.00;100873.66;11308107;26;19998;-80
2024/04/19 04:04:27;;;;;;;27.17;7.70;;;;;;;17.23;100.00;100875.38;11318601;26;20002;-80
2024/04/19 04:09:54;;;;;;;22.52;6.75;;;;;;;17.38;100.00;100887.69;11323446;26;20020;-80
2024/04/19 04:15:18;;;;;;;21.88;6.53;;;;;;;17.60;100.00;100897.22;11368433;26;20042;-80
2024/04/19 04:20:42;;;;;;;22.83;6.22;;;;;;;17.83;100.00;100892.56;11322137;26;20009;-78
2024/04/19 04:26:09;;;;;;;17.70;6.13;;;;;;;18.08;100.00;100906.47;11347071;26;20006;-82
2024/04/19 04:31:33;;;;;;;20.80;5.53;;;;;;;18.36;100.00;100898.97;11280410;26;19998;-81
2024/04/19 04:36:57;;;;;;;18.88;5.18;;;;;;;18.42;100.00;100906.91;11373115;26;20017;-81
2024/04/19 04:42:24;;;;;;;21.38;5.20;;;;;;;18.45;100.00;100906.84;11324776;26;20016;-81
2024/04/19 04:47:48;;;;;;;19.33;5.18;;;;;;;18.70;100.00;100908.31;11368379;26;20003;-81
2024/04/19 04:53:12;;;;;;;19.95;5.55;;;;;;;19.09;100.00;100914.81;11330091;26;20002;-82
2024/04/19 04:58:39;;;;;;;22.45;6.28;;;;;;;19.26;100.00;100898.44;11310211;26;20002;-82
2024/04/19 05:04:03;;;;;;;21.60;5.72;;;;;;;19.53;100.00;100893.53;11322644;26;20002;-81
2024/04/19 05:09:27;;;;;;;23.63;4.45;;;;;;;20.23;100.00;100890.28;11324255;26;20012;-82
2024/04/19 05:14:53;;;;;;;18.23;4.70;;;;;;;21.12;100.00;100898.03;11292092;26;20016;-82
2024/04/19 05:20:18;;;;;;;18.75;4.07;;;;;;;21.82;100.00;100898.84;11321239;26;20482;-83
2024/04/19 05:25:42;;;;;;;21.00;4.10;;;;;;;22.61;100.00;100896.47;11291976;26;20787;-83
2024/04/19 05:31:09;;;;;;;16.75;4.57;;;;;;;23.30;100.00;100893.28;11250738;26;20006;-82
2024/04/19 05:36:33;;;;;;;14.43;3.47;;;;;;;23.67;100.00;100886.63;11218448;26;20003;-82
2024/04/19 05:41:58;;;;;;;17.95;3.63;;;;;;;23.76;100.00;100897.94;11249922;26;20765;-82
2024/04/19 05:47:25;;;;;;;19.02;3.53;;;;;;;24.12;96.78;100889.41;11273828;26;20079;-83
2024/04/19 05:52:50;;;;;;;17.63;3.47;;;;;;;24.31;89.89;100895.91;11247385;26;20017;-82
2024/04/19 05:58:15;;;;;;;14.60;3.28;;;;;;;24.72;81.30;100879.88;11250239;26;19995;-82
2024/04/19 06:03:42;;;;;;;12.48;3.50;;;;;;;25.13;77.88;100883.59;11198066;26;20065;-83
2024/04/19 06:09:06;;;;;;;16.08;3.58;;;;;;;25.13;69.00;100886.31;11222429;26;20003;-82
2024/04/19 06:14:31;;;;;;;14.43;3.88;;;;;;;25.20;65.43;100893.22;11281086;26;20331;-83
2024/04/19 06:19:59;;;;;;;12.77;2.65;;;;;;;25.51;63.65;100887.34;11307550;26;19998;-83
2024/04/19 06:25:23;;;;;;;12.68;2.63;;;;;;;25.99;61.59;100887.84;11297648;26;19998;-82
2024/04/19 06:30:47;;;;;;;13.35;3.03;;;;;;;26.24;57.45;100876.81;11318839;26;19998;-83
2024/04/19 06:36:14;;;;;;;10.45;3.40;;;;;;;26.46;55.24;100869.41;11322255;26;20074;-90
2024/04/19 06:41:38;;;;;;;12.25;3.20;;;;;;;26.18;54.30;100868.94;11323962;26;20014;-86
2024/04/19 06:47:04;;;;;;;20.48;3.33;;;;;;;26.46;54.00;100863.09;11296766;26;20002;-87
2024/04/19 06:52:31;;;;;;;13.82;2.97;;;;;;;26.46;53.05;100871.22;11285292;26;19998;-87
2024/04/19 06:57:58;;;;;;;15.90;4.20;;;;;;;26.84;52.11;100869.38;11290345;26;20013;-90
2024/04/19 07:03:22;;;;;;;11.70;3.33;;;;;;;27.22;49.52;100870.16;11309592;26;20011;-86
2024/04/19 07:08:49;;;;;;;10.57;2.55;;;;;;;27.59;48.85;100883.56;11375272;26;20002;-87
2024/04/19 07:14:13;;;;;;;;;;;;;;;27.57;48.08;100896.34;11364730;26;20003;-85
2024/04/19 07:19:37;;;;;;;10.50;3.38;;;;;;;27.00;47.30;100899.28;11280149;26;19924;-85
2024/04/19 07:25:04;;;;;;;13.18;3.08;;;;;;;26.89;47.32;100892.59;11271664;26;20017;-86
2024/04/19 07:30:28;;;;;;;;;;;;;;;27.37;46.51;100881.06;11329678;26;19998;-82
2024/04/19 07:35:52;;;;;;;14.43;3.20;;;;;;;27.92;45.33;100878.16;11327424;26;19932;-82
2024/04/19 07:41:19;;;;;;;10.95;2.88;;;;;;;28.39;42.66;100878.28;11303181;26;20330;-82
2024/04/19 07:46:43;;;;;;;15.20;3.28;;;;;;;28.73;42.14;100869.09;11301685;26;20009;-83
2024/04/19 07:52:08;;;;;;;14.25;3.80;;;;;;;28.51;43.41;100891.19;11301612;26;20012;-83
2024/04/19 07:57:35;;;;;;;17.13;3.67;;;;;;;27.96;45.53;100892.47;11283569;26;19999;-82
2024/04/19 08:02:59;;;;;;;9.88;3.15;;;;;;;27.96;46.93;100887.88;11293384;26;20020;-82
2024/04/19 08:08:24;;;;;;;11.27;4.30;;;;;;;28.54;46.86;100898.28;11327351;26;20784;-83
2024/04/19 08:13:52;;;;;;;11.85;3.00;;;;;;;28.64;46.85;100894.06;11325118;26;20005;-86
2024/04/19 08:19:16;;;;;;;20.42;3.58;;;;;;;27.97;48.45;100903.22;11226791;26;19995;-85
2024/04/19 08:24:41;;;;;;;11.30;3.58;;;;;;;27.90;49.15;100903.63;11245590;26;20542;-85
2024/04/19 08:30:10;;;;;;;13.88;3.08;;;;;;;27.43;50.30;100901.59;11302998;26;20036;-85
2024/04/19 08:35:34;;;;;;;14.98;3.88;;;;;;;26.92;52.50;100902.38;11326248;26;20304;-85
2024/04/19 08:41:00;;;;;;;14.68;3.35;;;;;;;26.76;54.00;100896.84;11301963;26;20360;-85
2024/04/19 08:46:28;;;;;;;20.83;4.60;;;;;;;26.58;55.36;100889.63;11326742;26;19994;-85
2024/04/19 08:51:53;;;;;;;18.45;3.72;;;;;;;26.73;55.98;100883.44;11306262;26;20016;-85
2024/04/19 08:57:18;;;;;;;14.82;3.00;;;;;;;27.13;55.65;100870.63;11310676;26;20335;-86
2024/04/19 09:02:46;;;;;;;13.00;3.30;;;;;;;27.36;54.45;100845.91;11251893;26;19995;-86
2024/04/19 09:08:10;;;;;;;12.60;3.05;;;;;;;27.81;52.81;100836.31;11277073;26;20014;-86
2024/04/19 09:13:35;;;;;;;10.65;3.35;;;;;;;28.35;51.33;100826.94;11344982;26;20055;-87
2024/04/19 09:19:03;;;;;;;7.60;2.55;;;;;;;29.04;44.90;100821.97;11279798;26;20193;-89
2024/04/19 09:24:27;;;;;;;10.77;3.38;;;;;;;29.58;43.43;100816.88;11270403;26;20009;-88
2024/04/19 09:29:52;;;;;;;11.75;3.65;;;;;;;29.52;43.29;100795.50;11311987;26;20035;-86
2024/04/19 09:35:20;;;;;;;11.80;3.40;;;;;;;29.43;44.01;100782.44;11298089;26;20577;-88
2024/04/19 09:40:49;;;;;;;14.60;3.42;;;;;;;29.26;44.81;100767.16;11325639;26;20042;-89
2024/04/19 09:46:14;;;;;;;11.75;2.88;;;;;;;29.09;44.88;100760.00;11375195;26;20002;-87
2024/04/19 09:51:56;;;;;;;11.77;3.15;;;;;;;30.07;43.78;100742.00;11276624;26;20051;-87
2024/04/19 09:57:22;;;;;;;16.42;2.28;;;;;;;30.97;40.79;100724.13;11311422;26;20060;-88
2024/04/19 10:02:46;;;;;;;11.80;3.00;;;;;;;30.20;40.30;100709.38;11296869;26;20014;-87
2024/04/19 10:08:14;;;;;;;12.18;2.55;;;;;;;29.67;40.89;100700.13;11294947;26;20574;-87
2024/04/19 10:13:38;;;;;;;12.48;2.95;;;;;;;28.79;42.95;100691.22;11323965;26;19998;-88
2024/04/19 10:19:03;;;;;;;11.10;2.78;;;;;;;28.16;44.42;100685.91;11319526;26;20002;-85
2024/04/19 10:24:32;;;;;;;11.10;3.33;;;;;;;27.45;47.04;100666.41;11320979;26;20002;-84
2024/04/19 10:29:57;;;;;;;15.10;3.25;;;;;;;26.91;49.75;100663.03;11256437;26;20007;-96
2024/04/19 10:35:21;;;;;;;15.95;2.90;;;;;;;26.96;51.19;100669.13;11326770;26;20003;-90
2024/04/19 10:40:48;;;;;;;16.05;2.97;;;;;;;26.78;52.65;100664.63;11307858;26;20002;-92
2024/04/19 10:46:14;;;;;;;12.50;2.90;;;;;;;26.06;56.10;100667.41;11283355;26;20093;-92
2024/04/19 10:51:42;;;;;;;7.10;2.13;;;;;;;25.87;60.50;100662.97;11281096;26;20010;-96
2024/04/19 10:57:10;;;;;;;20.02;3.13;;;;;;;25.59;63.52;100663.47;11324019;26;20010;-91
2024/04/19 11:02:35;;;;;;;13.82;2.65;;;;;;;25.24;65.17;100662.38;11311065;26;20010;-94
2024/04/19 11:08:00;;;;;;;13.05;2.80;;;;;;;24.67;72.24;100665.88;11329465;26;20051;-88
2024/04/19 11:13:28;;;;;;;10.18;2.65;;;;;;;25.24;70.01;100660.56;11260307;26;20021;-84
2024/04/19 11:18:52;;;;;;;19.10;3.03;;;;;;;25.63;67.15;100655.13;11249479;26;20327;-88
2024/04/19 11:24:20;;;;;;;10.60;2.85;;;;;;;25.38;64.55;100654.53;11246327;26;20062;-91
2024/04/19 11:29:47;;;;;;;15.77;4.95;;;;;;;24.60;72.25;100640.97;11241371;26;20010;-90
2024/04/19 11:35:11;;;;;;;13.00;2.80;;;;;;;24.23;76.21;100647.06;11243948;26;19995;-85
2024/04/19 11:40:35;;;;;;;13.88;3.33;;;;;;;23.90;80.19;100627.75;11229504;26;20289;-92
2024/04/19 11:46:03;;;;;;;15.05;3.45;;;;;;;23.73;81.66;100617.66;11272627;26;20074;-95
2024/04/19 11:51:28;;;;;;;14.63;3.13;;;;;;;23.85;83.24;100627.06;11237678;26;20011;-88
2024/04/19 11:56:55;;;;;;;12.00;2.95;;;;;;;23.68;86.92;100629.59;11252334;26;20007;-91
2024/04/19 12:02:25;;;;;;;17.17;2.72;;;;;;;23.47;92.40;100593.59;11210652;26;20061;-94
2024/04/19 12:07:51;;;;;;;15.82;3.65;;;;;;;23.56;93.07;100587.84;11255644;26;19998;-89
2024/04/19 12:13:19;;;;;;;13.85;2.90;;;;;;;23.64;91.75;100585.69;11252546;26;20031;-87
2024/04/19 12:18:48;;;;;;;11.43;3.20;;;;;;;23.53;90.57;100593.34;11222319;26;19999;-87
2024/04/19 12:24:12;;;;;;;16.20;3.30;;;;;;;23.41;91.21;100583.03;11254972;26;20018;-88
2024/04/19 12:29:37;;;;;;;15.48;3.05;;;;;;;23.53;89.53;100555.59;11238468;26;20011;-90
2024/04/19 12:35:08;;;;;;;11.63;3.08;;;;;;;23.28;90.72;100544.91;11227183;26;20043;-88
2024/04/19 12:40:33;;;;;;;12.75;3.13;;;;;;;22.93;94.15;100540.91;11246174;26;19999;-89
2024/04/19 12:45:57;;;;;;;9.57;3.08;;;;;;;22.90;95.97;100529.41;11213985;26;20026;-91
2024/04/19 12:51:25;;;;;;;20.75;2.95;;;;;;;22.97;95.76;100499.47;11247765;26;20027;-89
2024/04/19 12:56:50;;;;;;;11.57;2.75;;;;;;;23.53;92.62;100499.00;11272147;26;20439;-90
2024/04/19 13:02:16;;;;;;;13.75;2.75;;;;;;;23.93;86.22;100482.00;11245420;26;20017;-93
2024/04/19 13:07:44;;;;;;;9.02;2.50;;;;;;;23.91;87.65;100464.13;11207695;26;20011;-82
2024/04/19 13:13:12;;;;;;;20.38;3.55;;;;;;;23.72;89.44;100450.59;11242126;26;19999;-82
2024/04/19 13:18:36;;;;;;;11.63;2.78;;;;;;;23.58;87.14;100431.44;11249247;26;20009;-84
2024/04/19 13:24:03;;;;;;;16.10;2.88;;;;;;;23.23;89.53;100419.44;11253457;26;20002;-86
2024/04/19 13:29:28;;;;;;;11.25;2.95;;;;;;;23.38;90.37;100418.78;11225061;26;20764;-91
2024/04/19 13:34:52;;;;;;;9.02;2.15;;;;;;;23.66;89.85;100422.06;11252227;26;20014;-85
2024/04/19 13:40:21;;;;;;;15.65;3.70;;;;;;;23.77;86.40;100397.31;11249738;26;20346;-88
2024/04/19 13:45:45;;;;;;;7.03;2.13;;;;;;;23.64;84.55;100397.00;11204888;26;20056;-89
2024/04/19 13:51:10;;;;;;;14.27;2.83;;;;;;;23.31;90.91;100382.25;11269642;26;20798;-90
2024/04/19 13:56:39;;;;;;;9.93;2.70;;;;;;;23.19;92.16;100369.31;11265094;26;19999;-94
2024/04/19 14:02:03;;;;;;;12.90;3.72;;;;;;;23.04;94.44;100328.63;11270811;26;19999;-93
2024/04/19 14:07:28;;;;;;;17.02;3.75;;;;;;;22.83;95.79;100348.41;11336971;26;19998;-95
2024/04/19 14:12:57;;;;;;;11.38;3.35;;;;;;;23.05;90.24;100346.53;11303723;26;20010;-94
2024/04/19 14:18:23;;;;;;;13.77;3.08;;;;;;;22.88;88.95;100361.66;11269705;26;20496;-95
2024/04/19 14:23:50;;;;;;;9.95;2.63;;;;;;;22.96;88.12;100362.22;11309854;26;20014;-92
2024/04/19 14:29:19;;;;;;;10.77;3.15;;;;;;;23.00;90.55;100326.13;11289326;26;20009;-89
2024/04/19 14:34:43;;;;;;;15.05;3.15;;;;;;;22.89;93.38;100333.81;11265733;26;20039;-92
2024/04/19 14:40:11;;;;;;;14.68;2.67;;;;;;;22.83;93.70;100337.63;11275518;26;20343;-91
2024/04/19 14:45:40;;;;;;;17.88;3.67;;;;;;;22.66;98.34;100326.63;11263518;26;19998;-91
2024/04/19 14:51:05;;;;;;;15.10;3.67;;;;;;;22.59;99.55;100328.69;11287930;26;19994;-88
2024/04/19 14:56:30;;;;;;;10.77;2.92;;;;;;;22.63;100.00;100324.97;11309030;26;20054;-95
2024/04/19 15:01:57;;;;;;;11.38;3.05;;;;;;;22.22;100.00;100326.63;11268166;26;19999;-94
2024/04/19 15:07:29;;;;;;;13.30;3.50;;;;;;;22.11;100.00;100336.91;11306276;26;20044;-92
2024/04/19 15:12:56;;;;;;;18.23;4.20;;;;;;;22.15;100.00;100318.84;11274938;26;20080;-94
2024/04/19 15:18:24;;;;;;;13.05;2.72;;;;;;;21.97;100.00;100309.69;11292682;26;20443;-89
2024/04/19 15:23:49;;;;;;;11.07;2.67;;;;;;;21.65;100.00;100301.94;11233834;26;20079;-87
2024/04/19 15:29:13;;;;;;;16.13;3.35;;;;;;;21.56;100.00;100321.06;11268796;26;20067;-88
2024/04/19 15:34:43;;;;;;;15.93;3.55;;;;;;;21.48;100.00;100335.66;11302270;26;20398;-88
2024/04/19 15:40:13;;;;;;;18.35;3.67;;;;;;;21.41;100.00;100335.91;11369665;26;20013;-93
2024/04/19 15:45:37;;;;;;;14.77;3.13;;;;;;;21.52;100.00;100324.81;11242201;26;20434;-92
2024/04/19 15:51:07;;;;;;;15.77;4.22;;;;;;;21.45;100.00;100316.97;11250643;26;20006;-93
2024/04/19 15:56:33;;;;;;;20.17;3.90;;;;;;;21.16;100.00;100303.69;11276659;26;20013;-88
2024/04/19 16:02:00;;;;;;;15.52;3.83;;;;;;;21.10;100.00;100285.09;11244655;26;19995;-91
2024/04/19 16:07:29;;;;;;;13.82;3.08;;;;;;;21.07;100.00;100251.16;11217916;26;20017;-93
2024/04/19 16:12:53;;;;;;;15.68;3.35;;;;;;;20.94;100.00;100244.47;11225539;26;20512;-82
2024/04/19 16:18:18;;;;;;;11.98;3.08;;;;;;;20.68;100.00;100249.88;11247815;26;20014;-84
2024/04/19 16:23:46;;;;;;;13.98;3.95;;;;;;;20.46;100.00;100222.91;11225900;26;20002;-83
2024/04/19 16:29:10;;;;;;;20.20;4.63;;;;;;;20.31;100.00;100239.47;11245841;26;19995;-87
2024/04/19 16:34:34;;;;;;;18.50;3.78;;;;;;;20.20;100.00;100242.50;11218747;26;20006;-91
2024/04/19 16:40:02;;;;;;;14.25;3.53;;;;;;;20.18;100.00;100252.41;11221514;26;20014;-86
2024/04/19 16:45:29;;;;;;;18.83;4.05;;;;;;;20.17;100.00;100249.75;11225884;26;19999;-86
2024/04/19 16:50:54;;;;;;;20.17;4.30;;;;;;;20.16;100.00;100248.88;11224874;26;20031;-82
2024/04/19 16:56:22;;;;;;;13.68;3.35;;;;;;;20.13;100.00;100259.72;11244690;26;20003;-88
2024/04/19 17:01:46;;;;;;;17.55;3.90;;;;;;;20.15;100.00;100235.53;11242516;26;20054;-95
2024/04/19 17:07:10;;;;;;;14.40;3.33;;;;;;;20.05;100.00;100237.63;11264714;26;20537;-90
2024/04/19 17:12:38;;;;;;;16.20;3.92;;;;;;;20.00;100.00;100211.91;11275883;26;20420;-93
2024/04/19 17:18:03;;;;;;;16.50;4.33;;;;;;;19.96;100.00;100194.16;11252818;26;20025;-88
2024/04/19 17:23:29;;;;;;;17.85;4.03;;;;;;;19.94;100.00;100204.06;11224348;26;20076;-89
2024/04/19 17:28:56;;;;;;;17.08;4.47;;;;;;;20.14;100.00;100257.91;11223737;26;20040;-88
2024/04/19 17:34:21;;;;;;;18.67;3.90;;;;;;;20.19;100.00;100223.78;11305978;26;20004;-96
2024/04/19 17:39:45;;;;;;;16.98;3.80;;;;;;;20.07;100.00;100232.22;11254108;26;20007;-93
2024/04/19 17:45:13;;;;;;;22.77;4.63;;;;;;;20.13;100.00;100235.59;11234024;26;20353;-88
2024/04/19 17:50:38;;;;;;;21.17;5.10;;;;;;;20.29;100.00;100260.06;11306726;26;20079;-88
2024/04/19 17:56:03;;;;;;;19.73;4.80;;;;;;;20.15;100.00;100185.47;11240435;26;20034;-90
2024/04/19 18:01:31;;;;;;;17.80;4.45;;;;;;;19.86;100.00;100161.44;11215233;26;20415;-87
2024/04/19 18:06:55;;;;;;;21.52;4.43;;;;;;;19.72;100.00;100144.94;11330955;26;20070;-85
2024/04/19 18:12:19;;;;;;;20.02;4.45;;;;;;;19.65;100.00;100079.09;11274974;26;20010;-93
2024/04/19 18:17:49;;;;;;;16.50;4.00;;;;;;;19.55;100.00;100091.91;11322294;26;20332;-85
2024/04/19 18:23:15;;;;;;;20.08;4.10;;;;;;;19.48;100.00;100133.19;11284241;26;20478;-89
2024/04/19 18:28:40;;;;;;;17.92;4.18;;;;;;;19.45;100.00;100096.63;11328630;26;19998;-86
2024/04/19 18:34:07;;;;;;;17.25;4.53;;;;;;;19.51;100.00;100095.59;11273726;26;20014;-88
2024/04/19 18:39:31;;;;;;;18.35;5.35;;;;;;;19.47;100.00;100126.09;11231890;26;19999;-89
2024/04/19 18:44:55;;;;;;;17.02;3.58;;;;;;;19.55;100.00;100086.56;11239261;26;20018;-87
2024/04/19 18:50:22;;;;;;;19.05;4.47;;;;;;;19.62;100.00;100098.84;11249151;26;20447;-88
2024/04/19 18:55:47;;;;;;;20.77;4.10;;;;;;;19.62;100.00;100093.47;11303805;26;20084;-84
2024/04/19 19:01:12;;;;;;;13.07;3.22;;;;;;;19.69;100.00;100134.31;11247794;26;20003;-87
2024/04/19 19:06:42;;;;;;;12.15;3.40;;;;;;;19.74;100.00;100180.59;11167300;26;20053;-89
2024/04/19 19:12:07;;;;;;;20.02;4.45;;;;;;;19.76;100.00;100179.59;11303958;26;20030;-92
2024/04/19 19:17:31;;;;;;;19.23;3.65;;;;;;;19.70;100.00;100192.28;11278705;26;20450;-93
2024/04/19 19:23:04;;;;;;;18.30;4.47;;;;;;;19.68;100.00;100180.78;11319362;26;20016;-91
2024/04/19 19:28:28;;;;;;;19.60;4.15;;;;;;;19.65;100.00;100041.59;11361606;25;19999;-92
2024/04/19 19:33:55;;;;;;;18.67;4.28;;;;;;;19.60;100.00;100073.91;11329932;26;20071;-91
2024/04/19 19:39:22;;;;;;;15.88;4.05;;;;;;;19.68;100.00;100077.22;11314299;26;20033;-91
2024/04/19 19:44:49;;;;;;;21.92;3.67;;;;;;;19.76;100.00;100069.78;11375780;26;20006;-87
2024/04/19 19:50:13;;;;;;;15.65;3.75;;;;;;;20.13;100.00;100060.50;11328069;26;19994;-86
2024/04/19 19:55:41;;;;;;;21.67;4.45;;;;;;;20.26;100.00;100056.47;11363117;26;19998;-91
2024/04/19 20:06:49;;;;;;;17.45;4.50;;;;;;;20.39;100.00;100051.56;11333263;26;19998;-93
2024/04/19 20:12:16;;;;;;;20.38;4.60;;;;;;;20.39;100.00;100071.22;11351730;26;20032;-90
2024/04/19 20:17:42;;;;;;;16.13;4.35;;;;;;;20.36;100.00;100054.34;11321877;26;20014;-92
2024/04/19 20:23:07;;;;;;;15.25;4.07;;;;;;;20.40;100.00;100064.94;11303483;26;20364;-92
2024/04/19 20:28:37;;;;;;;17.92;3.60;;;;;;;20.40;100.00;100054.22;11326463;26;20455;-92
2024/04/19 20:34:02;;;;;;;17.90;4.57;;;;;;;20.41;100.00;100096.19;11328715;26;19998;-90
2024/04/19 20:39:29;;;;;;;20.30;4.30;;;;;;;20.45;100.00;100139.84;11327647;26;19998;-90
2024/04/19 20:44:56;;;;;;;20.17;4.78;;;;;;;20.50;100.00;100165.56;11328091;26;20030;-93
2024/04/19 20:50:20;;;;;;;28.05;5.55;;;;;;;20.59;100.00;100154.53;11351071;26;20013;-91
2024/04/19 20:55:46;;;;;;;18.63;5.05;;;;;;;20.58;100.00;100133.13;11256487;26;20031;-90
2024/04/19 21:01:14;;;;;;;24.13;5.55;;;;;;;20.52;100.00;100075.22;11227398;26;20017;-90
2024/04/19 21:06:38;;;;;;;17.58;5.38;;;;;;;20.37;100.00;100058.78;11246246;26;20002;-91
2024/04/19 21:12:04;;;;;;;21.15;5.15;;;;;;;20.27;100.00;100039.47;11302708;26;20078;-91
2024/04/19 21:17:35;;;;;;;21.77;5.60;;;;;;;20.22;100.00;100028.00;11253458;26;20009;-91
2024/04/19 21:23:02;;;;;;;28.60;6.38;;;;;;;20.15;100.00;100045.25;11302413;26;20025;-92
2024/04/19 21:28:28;;;;;;;21.20;5.03;;;;;;;20.19;100.00;100029.00;11299197;26;19998;-92
2024/04/19 21:33:57;;;;;;;26.02;5.60;;;;;;;20.27;100.00;100036.78;11326109;26;20074;-91
2024/04/19 21:39:22;;;;;;;27.98;5.32;;;;;;;20.32;100.00;100012.47;11301681;26;20014;-93
2024/04/19 21:44:56;;;;;;;28.55;5.93;;;;;;;20.44;100.00;100002.22;11278311;26;20016;-91
2024/04/19 21:50:25;;;;;;;31.73;6.20;;;;;;;20.56;100.00;99991.00;11349562;26;20114;-92
2024/04/19 21:55:50;;;;;;;28.40;6.43;;;;;;;20.68;100.00;99990.53;11312185;26;20009;-90
2024/04/19 22:01:15;;;;;;;29.27;7.20;;;;;;;20.74;100.00;99951.03;11289458;26;20014;-89
2024/04/19 22:06:43;;;;;;;30.55;6.30;;;;;;;20.80;100.00;99961.53;11296517;26;20010;-88
2024/04/19 22:12:10;;;;;;;35.90;5.72;;;;;;;20.87;100.00;99997.91;11324445;26;20013;-89
2024/04/19 22:17:35;;;;;;;38.63;6.75;;;;;;;20.92;100.00;99990.56;11301971;26;20339;-91
2024/04/19 22:23:05;;;;;;;31.83;6.47;;;;;;;20.98;100.00;99988.50;11320710;26;20458;-91
2024/04/19 22:28:30;;;;;;;41.45;7.78;;;;;;;21.06;100.00;99986.41;11279581;26;20071;-91
2024/04/19 22:33:55;;;;;;;41.25;7.82;;;;;;;21.16;100.00;100010.19;11277584;26;20007;-89
2024/04/19 22:39:23;;;;;;;39.15;6.80;;;;;;;21.20;100.00;100001.09;11268116;26;20003;-92
2024/04/19 22:44:48;;;;;;;34.92;6.70;;;;;;;21.31;100.00;100005.09;11291670;26;20331;-91
2024/04/19 22:50:14;;;;;;;40.08;6.45;;;;;;;21.31;100.00;99999.72;11281755;26;20029;-92
2024/04/19 22:55:41;;;;;;;33.22;7.82;;;;;;;21.25;100.00;100004.47;11285518;26;20494;-93
2024/04/19 23:01:10;;;;;;;31.25;6.15;;;;;;;21.08;100.00;99995.25;11250196;26;20013;-92
2024/04/19 23:06:34;;;;;;;32.73;7.33;;;;;;;20.90;100.00;99982.56;11286505;26;20003;-92
2024/04/19 23:12:03;;;;;;;33.65;6.75;;;;;;;20.77;100.00;99970.56;11322409;26;20003;-90
2024/04/19 23:17:27;;;;;;;31.95;6.60;;;;;;;20.60;100.00;99947.06;11245360;26;20511;-90
2024/04/19 23:22:53;;;;;;;28.88;5.70;;;;;;;20.50;100.00;99939.44;11322870;26;20438;-90
2024/04/19 23:28:21;;;;;;;39.60;7.18;;;;;;;20.44;100.00;99932.50;11269149;26;20011;-88
2024/04/19 23:33:46;;;;;;;37.42;6.85;;;;;;;20.42;100.00;99953.13;11288278;26;20002;-89
2024/04/19 23:39:13;;;;;;;33.47;6.57;;;;;;;20.63;100.00;99970.22;11275168;26;20009;-91
2024/04/19 23:44:48;;;;;;;40.83;7.07;;;;;;;20.82;100.00;99963.19;11300684;26;20006;-91
2024/04/19 23:50:12;;;;;;;39.58;6.65;;;;;;;20.78;100.00;99961.56;11290677;26;19994;-90
2024/04/19 23:55:37;;;;;;;23.15;4.18;;;;;;;20.66;100.00;100032.66;11318394;26;20022;-91
